createdAt,value
2022-11-25T00:00:58.175Z,1006.05
2022-11-25T00:01:58.210Z,1006.07
2022-11-25T00:02:58.305Z,1006.09
2022-11-25T00:03:58.091Z,1006.08
2022-11-25T00:04:58.065Z,1006.06
2022-11-25T00:05:58.069Z,1006.08
2022-11-25T00:06:58.007Z,1006.03
2022-11-25T00:07:58.015Z,1006.04
2022-11-25T00:08:57.964Z,1006.04
2022-11-25T00:09:57.937Z,1006.03
2022-11-25T00:10:57.901Z,1006.01
2022-11-25T00:11:57.877Z,1006.02
2022-11-25T00:12:57.850Z,1006.05
2022-11-25T00:13:57.836Z,1005.98
2022-11-25T00:14:57.800Z,1006.01
2022-11-25T00:15:57.772Z,1006.02
2022-11-25T00:16:57.772Z,1005.99
2022-11-25T00:17:57.725Z,1006.01
2022-11-25T00:18:57.690Z,1005.99
2022-11-25T00:19:57.670Z,1005.99
2022-11-25T00:20:57.647Z,1006.00
2022-11-25T00:21:57.636Z,1006.01
2022-11-25T00:22:57.587Z,1005.95
2022-11-25T00:23:57.571Z,1005.91
2022-11-25T00:24:57.536Z,1005.89
2022-11-25T00:25:57.519Z,1005.89
2022-11-25T00:26:57.488Z,1005.89
2022-11-25T00:27:57.464Z,1005.88
2022-11-25T00:28:57.435Z,1005.89
2022-11-25T00:29:57.408Z,1005.91
2022-11-25T00:30:57.388Z,1005.86
2022-11-25T00:31:57.470Z,1005.87
2022-11-25T00:32:57.325Z,1005.82
2022-11-25T00:33:57.303Z,1005.80
2022-11-25T00:34:57.272Z,1005.81
2022-11-25T00:35:57.252Z,1005.79
2022-11-25T00:36:57.229Z,1005.82
2022-11-25T00:37:57.219Z,1005.77
2022-11-25T00:38:57.183Z,1005.74
2022-11-25T00:39:57.146Z,1005.74
2022-11-25T00:40:57.114Z,1005.75
2022-11-25T00:41:57.093Z,1005.71
2022-11-25T00:42:57.062Z,1005.72
2022-11-25T00:43:57.039Z,1005.74
2022-11-25T00:44:57.017Z,1005.71
2022-11-25T00:45:57.068Z,1005.71
2022-11-25T00:46:56.953Z,1005.68
2022-11-25T00:47:56.941Z,1005.74
2022-11-25T00:48:56.910Z,1005.75
2022-11-25T00:49:56.885Z,1005.77
2022-11-25T00:50:56.849Z,1005.76
2022-11-25T00:51:56.836Z,1005.73
2022-11-25T00:52:56.801Z,1005.70
2022-11-25T00:53:59.076Z,1005.74
2022-11-25T00:54:56.748Z,1005.76
2022-11-25T00:55:56.721Z,1005.77
2022-11-25T00:56:56.692Z,1005.71
2022-11-25T00:57:56.675Z,1005.75
2022-11-25T00:58:56.643Z,1005.78
2022-11-25T00:59:56.624Z,1005.76
2022-11-25T01:00:56.664Z,1005.78
2022-11-25T01:01:56.632Z,1005.74
2022-11-25T01:02:56.536Z,1005.76
2022-11-25T01:03:56.512Z,1005.75
2022-11-25T01:04:56.481Z,1005.74
2022-11-25T01:05:56.464Z,1005.76
2022-11-25T01:06:56.436Z,1005.74
2022-11-25T01:07:56.407Z,1005.71
2022-11-25T01:08:56.384Z,1005.72
2022-11-25T01:09:56.378Z,1005.69
2022-11-25T01:10:56.325Z,1005.70
2022-11-25T01:11:56.302Z,1005.65
2022-11-25T01:12:56.276Z,1005.65
2022-11-25T01:14:00.903Z,1005.66
2022-11-25T01:14:56.219Z,1005.60
2022-11-25T01:15:56.199Z,1005.60
2022-11-25T01:16:56.261Z,1005.54
2022-11-25T01:17:56.150Z,1005.53
2022-11-25T01:18:56.150Z,1005.54
2022-11-25T01:19:56.092Z,1005.49
2022-11-25T01:20:56.073Z,1005.53
2022-11-25T01:21:56.050Z,1005.53
2022-11-25T01:22:56.023Z,1005.53
2022-11-25T01:23:55.992Z,1005.57
2022-11-25T01:24:55.960Z,1005.61
2022-11-25T01:25:55.981Z,1005.64
2022-11-25T01:26:55.918Z,1005.63
2022-11-25T01:27:55.886Z,1005.60
2022-11-25T01:28:55.854Z,1005.63
2022-11-25T01:29:55.834Z,1005.61
2022-11-25T01:30:55.804Z,1005.59
2022-11-25T01:31:55.843Z,1005.62
2022-11-25T01:32:55.749Z,1005.62
2022-11-25T01:33:55.729Z,1005.64
2022-11-25T01:34:55.701Z,1005.63
2022-11-25T01:35:55.675Z,1005.62
2022-11-25T01:36:55.645Z,1005.64
2022-11-25T01:37:55.621Z,1005.59
2022-11-25T01:38:55.592Z,1005.60
2022-11-25T01:39:55.565Z,1005.59
2022-11-25T01:40:55.540Z,1005.55
2022-11-25T01:41:55.535Z,1005.58
2022-11-25T01:42:55.485Z,1005.56
2022-11-25T01:43:55.462Z,1005.53
2022-11-25T01:44:55.434Z,1005.55
2022-11-25T01:45:55.478Z,1005.57
2022-11-25T01:46:55.381Z,1005.57
2022-11-25T01:47:55.360Z,1005.57
2022-11-25T01:48:55.329Z,1005.58
2022-11-25T01:49:55.304Z,1005.57
2022-11-25T01:50:55.276Z,1005.60
2022-11-25T01:51:55.252Z,1005.59
2022-11-25T01:52:55.222Z,1005.57
2022-11-25T01:53:55.202Z,1005.58
2022-11-25T01:54:55.170Z,1005.54
2022-11-25T01:55:55.156Z,1005.55
2022-11-25T01:56:55.125Z,1005.51
2022-11-25T01:57:55.125Z,1005.56
2022-11-25T01:58:55.069Z,1005.55
2022-11-25T01:59:55.047Z,1005.55
2022-11-25T02:00:55.042Z,1005.56
2022-11-25T02:01:55.056Z,1005.54
2022-11-25T02:02:54.962Z,1005.48
2022-11-25T02:03:54.942Z,1005.50
2022-11-25T02:04:54.909Z,1005.51
2022-11-25T02:05:54.887Z,1005.47
2022-11-25T02:06:54.859Z,1005.47
2022-11-25T02:07:54.919Z,1005.47
2022-11-25T02:08:54.807Z,1005.44
2022-11-25T02:09:54.787Z,1005.43
2022-11-25T02:10:54.752Z,1005.43
2022-11-25T02:11:54.729Z,1005.45
2022-11-25T02:12:54.701Z,1005.43
2022-11-25T02:13:54.699Z,1005.43
2022-11-25T02:14:54.647Z,1005.42
2022-11-25T02:15:54.623Z,1005.38
2022-11-25T02:16:54.649Z,1005.38
2022-11-25T02:17:54.571Z,1005.40
2022-11-25T02:18:54.542Z,1005.44
2022-11-25T02:19:54.523Z,1005.41
2022-11-25T02:20:54.496Z,1005.38
2022-11-25T02:21:54.469Z,1005.36
2022-11-25T02:22:54.439Z,1005.36
2022-11-25T02:23:54.416Z,1005.37
2022-11-25T02:24:54.386Z,1005.36
2022-11-25T02:25:54.366Z,1005.35
2022-11-25T02:26:54.329Z,1005.36
2022-11-25T02:27:54.309Z,1005.39
2022-11-25T02:28:54.285Z,1005.42
2022-11-25T02:29:54.279Z,1005.42
2022-11-25T02:30:54.227Z,1005.43
2022-11-25T02:31:54.281Z,1005.41
2022-11-25T02:32:54.180Z,1005.41
2022-11-25T02:33:54.151Z,1005.38
2022-11-25T02:34:54.121Z,1005.41
2022-11-25T02:35:54.099Z,1005.40
2022-11-25T02:36:54.070Z,1005.42
2022-11-25T02:37:54.053Z,1005.41
2022-11-25T02:38:54.025Z,1005.35
2022-11-25T02:39:53.999Z,1005.36
2022-11-25T02:40:53.964Z,1005.37
2022-11-25T02:41:53.950Z,1005.36
2022-11-25T02:42:53.916Z,1005.35
2022-11-25T02:43:53.894Z,1005.35
2022-11-25T02:44:53.861Z,1005.34
2022-11-25T02:45:53.939Z,1005.27
2022-11-25T02:46:53.807Z,1005.31
2022-11-25T02:47:53.787Z,1005.28
2022-11-25T02:49:08.439Z,1005.24
2022-11-25T02:49:53.736Z,1005.24
2022-11-25T02:50:53.705Z,1005.21
2022-11-25T02:51:53.686Z,1005.20
2022-11-25T02:52:53.662Z,1005.21
2022-11-25T02:53:53.629Z,1005.21
2022-11-25T02:54:53.602Z,1005.19
2022-11-25T02:55:53.579Z,1005.22
2022-11-25T02:56:53.555Z,1005.18
2022-11-25T02:57:53.527Z,1005.24
2022-11-25T02:58:53.495Z,1005.26
2022-11-25T02:59:53.476Z,1005.24
2022-11-25T03:00:53.520Z,1005.24
2022-11-25T03:01:53.487Z,1005.23
2022-11-25T03:02:53.395Z,1005.22
2022-11-25T03:03:53.371Z,1005.21
2022-11-25T03:04:53.342Z,1005.23
2022-11-25T03:05:53.323Z,1005.23
2022-11-25T03:06:53.291Z,1005.22
2022-11-25T03:07:53.341Z,1005.21
2022-11-25T03:08:53.237Z,1005.20
2022-11-25T03:09:53.215Z,1005.21
2022-11-25T03:10:53.183Z,1005.23
2022-11-25T03:11:53.160Z,1005.20
2022-11-25T03:12:53.133Z,1005.19
2022-11-25T03:13:53.109Z,1005.20
2022-11-25T03:14:53.078Z,1005.18
2022-11-25T03:15:53.059Z,1005.20
2022-11-25T03:16:53.133Z,1005.21
2022-11-25T03:17:53.024Z,1005.18
2022-11-25T03:18:52.976Z,1005.22
2022-11-25T03:19:52.948Z,1005.18
2022-11-25T03:20:52.922Z,1005.16
2022-11-25T03:21:52.908Z,1005.14
2022-11-25T03:22:52.872Z,1005.14
2022-11-25T03:23:52.848Z,1005.17
2022-11-25T03:24:52.818Z,1005.16
2022-11-25T03:25:52.801Z,1005.20
2022-11-25T03:26:52.770Z,1005.19
2022-11-25T03:27:52.749Z,1005.19
2022-11-25T03:28:52.720Z,1005.18
2022-11-25T03:29:52.704Z,1005.24
2022-11-25T03:30:52.669Z,1005.24
2022-11-25T03:31:52.747Z,1005.27
2022-11-25T03:32:52.627Z,1005.29
2022-11-25T03:33:52.614Z,1005.27
2022-11-25T03:34:52.563Z,1005.30
2022-11-25T03:35:52.542Z,1005.34
2022-11-25T03:36:52.608Z,1005.36
2022-11-25T03:37:52.491Z,1005.36
2022-11-25T03:38:52.456Z,1005.36
2022-11-25T03:39:52.431Z,1005.40
2022-11-25T03:40:52.408Z,1005.41
2022-11-25T03:41:52.385Z,1005.38
2022-11-25T03:42:52.347Z,1005.42
2022-11-25T03:43:52.326Z,1005.42
2022-11-25T03:44:52.300Z,1005.43
2022-11-25T03:45:52.333Z,1005.42
2022-11-25T03:46:52.245Z,1005.44
2022-11-25T03:47:52.227Z,1005.43
2022-11-25T03:48:52.195Z,1005.44
2022-11-25T03:49:52.194Z,1005.45
2022-11-25T03:50:52.146Z,1005.47
2022-11-25T03:51:52.148Z,1005.48
2022-11-25T03:52:52.099Z,1005.52
2022-11-25T03:53:52.071Z,1005.50
2022-11-25T03:54:52.037Z,1005.48
2022-11-25T03:55:52.016Z,1005.47
2022-11-25T03:56:51.991Z,1005.46
2022-11-25T03:57:51.967Z,1005.47
2022-11-25T03:58:51.936Z,1005.47
2022-11-25T03:59:51.917Z,1005.49
2022-11-25T04:00:51.927Z,1005.52
2022-11-25T04:01:51.927Z,1005.52
2022-11-25T04:02:51.864Z,1005.52
2022-11-25T04:03:51.811Z,1005.56
2022-11-25T04:04:51.783Z,1005.55
2022-11-25T04:05:51.781Z,1005.58
2022-11-25T04:06:51.732Z,1005.58
2022-11-25T04:07:56.438Z,1005.59
2022-11-25T04:08:51.680Z,1005.62
2022-11-25T04:09:51.658Z,1005.64
2022-11-25T04:10:51.628Z,1005.64
2022-11-25T04:11:51.601Z,1005.63
2022-11-25T04:12:51.579Z,1005.65
2022-11-25T04:13:51.549Z,1005.58
2022-11-25T04:14:51.526Z,1005.58
2022-11-25T04:15:51.500Z,1005.61
2022-11-25T04:16:51.604Z,1005.61
2022-11-25T04:17:51.446Z,1005.60
2022-11-25T04:18:51.425Z,1005.54
2022-11-25T04:19:51.395Z,1005.56
2022-11-25T04:20:51.371Z,1005.53
2022-11-25T04:21:52.562Z,1005.54
2022-11-25T04:22:51.324Z,1005.54
2022-11-25T04:23:51.288Z,1005.52
2022-11-25T04:24:51.267Z,1005.51
2022-11-25T04:25:51.239Z,1005.53
2022-11-25T04:26:51.218Z,1005.54
2022-11-25T04:27:51.188Z,1005.60
2022-11-25T04:28:53.044Z,1005.59
2022-11-25T04:29:51.144Z,1005.61
2022-11-25T04:30:51.192Z,1005.60
2022-11-25T04:31:51.088Z,1005.55
2022-11-25T04:32:51.062Z,1005.57
2022-11-25T04:33:52.748Z,1005.58
2022-11-25T04:34:51.014Z,1005.57
2022-11-25T04:35:50.982Z,1005.58
2022-11-25T04:36:50.962Z,1005.58
2022-11-25T04:37:50.956Z,1005.60
2022-11-25T04:38:50.909Z,1005.61
2022-11-25T04:39:50.883Z,1005.63
2022-11-25T04:40:50.854Z,1005.64
2022-11-25T04:41:50.826Z,1005.66
2022-11-25T04:42:50.806Z,1005.69
2022-11-25T04:43:50.775Z,1005.69
2022-11-25T04:45:07.585Z,1005.70
2022-11-25T04:46:13.074Z,1005.70
2022-11-25T04:46:50.794Z,1005.72
2022-11-25T04:47:50.701Z,1005.75
2022-11-25T04:48:50.660Z,1005.76
2022-11-25T04:49:50.618Z,1005.75
2022-11-25T04:50:50.597Z,1005.79
2022-11-25T04:51:50.568Z,1005.81
2022-11-25T04:52:50.548Z,1005.79
2022-11-25T04:53:50.547Z,1005.80
2022-11-25T04:54:50.497Z,1005.79
2022-11-25T04:55:50.469Z,1005.85
2022-11-25T04:56:50.442Z,1005.86
2022-11-25T04:57:50.416Z,1005.84
2022-11-25T04:58:50.392Z,1005.88
2022-11-25T04:59:50.364Z,1005.90
2022-11-25T05:00:50.340Z,1005.92
2022-11-25T05:01:50.400Z,1005.89
2022-11-25T05:02:50.338Z,1005.86
2022-11-25T05:03:55.990Z,1005.86
2022-11-25T05:04:50.242Z,1005.88
2022-11-25T05:05:50.217Z,1005.89
2022-11-25T05:06:50.190Z,1005.86
2022-11-25T05:07:50.198Z,1005.87
2022-11-25T05:08:50.134Z,1005.87
2022-11-25T05:09:50.133Z,1005.84
2022-11-25T05:10:50.083Z,1005.89
2022-11-25T05:11:50.060Z,1005.86
2022-11-25T05:12:50.040Z,1005.87
2022-11-25T05:13:50.008Z,1005.82
2022-11-25T05:14:49.984Z,1005.82
2022-11-25T05:15:49.956Z,1005.82
2022-11-25T05:16:50.002Z,1005.80
2022-11-25T05:17:49.898Z,1005.87
2022-11-25T05:18:49.901Z,1005.88
2022-11-25T05:19:49.849Z,1005.86
2022-11-25T05:20:49.825Z,1005.87
2022-11-25T05:21:49.799Z,1005.89
2022-11-25T05:22:49.775Z,1005.88
2022-11-25T05:23:55.554Z,1005.94
2022-11-25T05:24:49.725Z,1005.99
2022-11-25T05:25:49.721Z,1005.99
2022-11-25T05:26:49.675Z,1006.05
2022-11-25T05:27:49.649Z,1006.07
2022-11-25T05:28:49.625Z,1006.05
2022-11-25T05:29:55.501Z,1006.04
2022-11-25T05:30:49.629Z,1006.04
2022-11-25T05:31:49.543Z,1006.03
2022-11-25T05:32:49.517Z,1006.01
2022-11-25T05:33:49.491Z,1006.05
2022-11-25T05:34:49.464Z,1006.05
2022-11-25T05:35:49.436Z,1006.05
2022-11-25T05:36:49.412Z,1006.04
2022-11-25T05:37:49.392Z,1006.07
2022-11-25T05:38:49.362Z,1006.05
2022-11-25T05:39:49.334Z,1006.04
2022-11-25T05:40:49.312Z,1006.04
2022-11-25T05:41:49.301Z,1006.03
2022-11-25T05:42:49.258Z,1006.06
2022-11-25T05:43:49.233Z,1006.09
2022-11-25T05:44:49.207Z,1006.07
2022-11-25T05:45:49.191Z,1006.04
2022-11-25T05:46:49.157Z,1006.03
2022-11-25T05:47:49.128Z,1006.01
2022-11-25T05:48:49.113Z,1006.04
2022-11-25T05:49:49.077Z,1006.08
2022-11-25T05:50:49.056Z,1006.11
2022-11-25T05:51:49.033Z,1006.10
2022-11-25T05:52:49.007Z,1006.10
2022-11-25T05:53:48.973Z,1006.11
2022-11-25T05:54:51.268Z,1006.10
2022-11-25T05:55:48.925Z,1006.10
2022-11-25T05:56:48.904Z,1006.12
2022-11-25T05:57:48.898Z,1006.08
2022-11-25T05:58:48.856Z,1006.09
2022-11-25T05:59:48.823Z,1006.09
2022-11-25T06:00:48.801Z,1006.08
2022-11-25T06:01:48.773Z,1006.12
2022-11-25T06:02:48.807Z,1006.06
2022-11-25T06:03:48.833Z,1006.08
2022-11-25T06:04:48.701Z,1006.09
2022-11-25T06:05:48.672Z,1006.05
2022-11-25T06:06:48.649Z,1006.03
2022-11-25T06:07:48.680Z,1006.02
2022-11-25T06:08:48.620Z,1006.00
2022-11-25T06:09:48.569Z,1006.03
2022-11-25T06:10:48.551Z,1006.05
2022-11-25T06:11:48.514Z,1006.06
2022-11-25T06:12:48.509Z,1006.08
2022-11-25T06:13:48.522Z,1006.06
2022-11-25T06:14:48.439Z,1006.08
2022-11-25T06:15:48.460Z,1006.10
2022-11-25T06:16:48.390Z,1006.10
2022-11-25T06:17:48.362Z,1006.09
2022-11-25T06:18:48.338Z,1006.08
2022-11-25T06:19:48.309Z,1006.11
2022-11-25T06:20:48.288Z,1006.10
2022-11-25T06:21:48.261Z,1006.09
2022-11-25T06:22:48.229Z,1006.11
2022-11-25T06:23:48.200Z,1006.12
2022-11-25T06:24:55.348Z,1006.16
2022-11-25T06:25:48.149Z,1006.14
2022-11-25T06:26:48.125Z,1006.17
2022-11-25T06:28:11.838Z,1006.17
2022-11-25T06:28:48.080Z,1006.15
2022-11-25T06:29:48.067Z,1006.20
2022-11-25T06:30:48.099Z,1006.18
2022-11-25T06:31:47.997Z,1006.24
2022-11-25T06:32:47.973Z,1006.23
2022-11-25T06:33:47.951Z,1006.24
2022-11-25T06:34:47.919Z,1006.26
2022-11-25T06:35:47.894Z,1006.23
2022-11-25T06:36:47.875Z,1006.25
2022-11-25T06:37:47.838Z,1006.27
2022-11-25T06:38:47.818Z,1006.27
2022-11-25T06:39:47.791Z,1006.31
2022-11-25T06:40:47.774Z,1006.29
2022-11-25T06:41:47.734Z,1006.23
2022-11-25T06:42:47.716Z,1006.25
2022-11-25T06:43:47.684Z,1006.32
2022-11-25T06:44:47.661Z,1006.29
2022-11-25T06:45:47.656Z,1006.30
2022-11-25T06:46:47.659Z,1006.29
2022-11-25T06:47:47.588Z,1006.30
2022-11-25T06:48:47.563Z,1006.28
2022-11-25T06:49:47.532Z,1006.34
2022-11-25T06:50:47.509Z,1006.31
2022-11-25T06:51:47.477Z,1006.31
2022-11-25T06:52:47.458Z,1006.34
2022-11-25T06:53:47.430Z,1006.34
2022-11-25T06:54:47.403Z,1006.41
2022-11-25T06:55:47.377Z,1006.42
2022-11-25T06:56:47.354Z,1006.54
2022-11-25T06:57:47.333Z,1006.62
2022-11-25T06:58:47.305Z,1006.67
2022-11-25T06:59:47.277Z,1006.63
2022-11-25T07:00:47.255Z,1006.61
2022-11-25T07:01:47.302Z,1006.66
2022-11-25T07:02:48.908Z,1006.71
2022-11-25T07:03:47.181Z,1006.64
2022-11-25T07:04:47.152Z,1006.70
2022-11-25T07:05:47.119Z,1006.69
2022-11-25T07:06:47.105Z,1006.71
2022-11-25T07:07:47.119Z,1006.79
2022-11-25T07:08:47.043Z,1006.73
2022-11-25T07:09:47.021Z,1006.72
2022-11-25T07:10:46.995Z,1006.81
2022-11-25T07:11:46.962Z,1006.79
2022-11-25T07:12:46.942Z,1006.83
2022-11-25T07:13:46.914Z,1006.84
2022-11-25T07:14:46.889Z,1006.94
2022-11-25T07:15:46.903Z,1006.95
2022-11-25T07:16:46.845Z,1006.98
2022-11-25T07:17:46.832Z,1007.05
2022-11-25T07:18:46.787Z,1007.07
2022-11-25T07:19:46.761Z,1007.04
2022-11-25T07:20:46.737Z,1007.07
2022-11-25T07:21:46.715Z,1007.03
2022-11-25T07:22:46.684Z,1007.13
2022-11-25T07:23:46.664Z,1007.13
2022-11-25T07:24:46.634Z,1007.13
2022-11-25T07:25:46.605Z,1007.14
2022-11-25T07:26:46.586Z,1007.15
2022-11-25T07:27:46.555Z,1007.19
2022-11-25T07:28:46.526Z,1007.20
2022-11-25T07:31:46.449Z,1007.26
2022-11-25T07:32:46.437Z,1007.23
2022-11-25T07:33:46.529Z,1007.29
2022-11-25T07:34:46.369Z,1007.29
2022-11-25T07:35:46.353Z,1007.29
2022-11-25T07:36:46.325Z,1007.33
2022-11-25T07:37:46.297Z,1007.33
2022-11-25T07:38:46.949Z,1007.44
2022-11-25T07:39:46.255Z,1007.40
2022-11-25T07:40:46.224Z,1007.44
2022-11-25T07:41:46.197Z,1007.47
2022-11-25T07:42:46.167Z,1007.46
2022-11-25T07:43:46.240Z,1007.42
2022-11-25T07:44:46.120Z,1007.42
2022-11-25T07:45:46.095Z,1007.44
2022-11-25T07:46:46.180Z,1007.42
2022-11-25T07:47:46.138Z,1007.44
2022-11-25T07:48:46.031Z,1007.49
2022-11-25T07:49:46.008Z,1007.48
2022-11-25T07:50:45.962Z,1007.50
2022-11-25T07:51:45.938Z,1007.49
2022-11-25T07:52:45.914Z,1007.48
2022-11-25T07:53:45.882Z,1007.55
2022-11-25T07:54:45.860Z,1007.54
2022-11-25T07:55:45.832Z,1007.52
2022-11-25T07:56:45.813Z,1007.54
2022-11-25T07:57:45.783Z,1007.52
2022-11-25T07:58:46.305Z,1007.54
2022-11-25T07:59:45.728Z,1007.53
2022-11-25T08:00:45.711Z,1007.56
2022-11-25T08:01:45.792Z,1007.58
2022-11-25T08:02:45.739Z,1007.61
2022-11-25T08:03:45.633Z,1007.61
2022-11-25T08:04:45.607Z,1007.58
2022-11-25T08:05:45.593Z,1007.66
2022-11-25T08:06:45.559Z,1007.68
2022-11-25T08:07:45.568Z,1007.66
2022-11-25T08:08:45.501Z,1007.69
2022-11-25T08:09:45.475Z,1007.66
2022-11-25T08:10:45.451Z,1007.66
2022-11-25T08:11:45.415Z,1007.67
2022-11-25T08:12:45.399Z,1007.70
2022-11-25T08:13:45.378Z,1007.72
2022-11-25T08:14:45.351Z,1007.73
2022-11-25T08:15:45.375Z,1007.67
2022-11-25T08:16:45.323Z,1007.68
2022-11-25T08:17:45.265Z,1007.66
2022-11-25T08:18:45.240Z,1007.66
2022-11-25T08:19:45.223Z,1007.64
2022-11-25T08:20:45.196Z,1007.66
2022-11-25T08:21:45.189Z,1007.68
2022-11-25T08:22:45.138Z,1007.66
2022-11-25T08:23:45.125Z,1007.68
2022-11-25T08:24:45.094Z,1007.69
2022-11-25T08:25:50.249Z,1007.68
2022-11-25T08:26:45.038Z,1007.71
2022-11-25T08:27:45.010Z,1007.76
2022-11-25T08:28:44.987Z,1007.74
2022-11-25T08:29:44.966Z,1007.81
2022-11-25T08:30:44.947Z,1007.80
2022-11-25T08:31:44.975Z,1007.88
2022-11-25T08:32:44.881Z,1007.80
2022-11-25T08:33:44.862Z,1007.86
2022-11-25T08:34:44.829Z,1007.87
2022-11-25T08:35:44.821Z,1007.91
2022-11-25T08:36:48.139Z,1007.91
2022-11-25T08:37:44.781Z,1007.88
2022-11-25T08:38:44.730Z,1007.94
2022-11-25T08:39:52.389Z,1007.95
2022-11-25T08:40:44.682Z,1007.95
2022-11-25T08:41:44.660Z,1007.98
2022-11-25T08:42:44.639Z,1007.97
2022-11-25T08:43:44.612Z,1007.99
2022-11-25T08:44:44.585Z,1008.00
2022-11-25T08:45:44.554Z,1008.01
2022-11-25T08:46:44.567Z,1008.02
2022-11-25T08:47:44.504Z,1008.02
2022-11-25T08:48:44.470Z,1008.04
2022-11-25T08:49:44.933Z,1008.04
2022-11-25T08:50:44.420Z,1008.10
2022-11-25T08:51:44.397Z,1008.07
2022-11-25T08:52:44.371Z,1008.11
2022-11-25T08:53:44.372Z,1008.10
2022-11-25T08:54:44.326Z,1008.12
2022-11-25T08:55:44.299Z,1008.15
2022-11-25T08:56:44.271Z,1008.16
2022-11-25T08:57:44.250Z,1008.13
2022-11-25T08:58:44.219Z,1008.14
2022-11-25T08:59:44.197Z,1008.13
2022-11-25T09:00:44.165Z,1008.13
2022-11-25T09:01:44.231Z,1008.10
2022-11-25T09:02:44.293Z,1008.11
2022-11-25T09:03:44.116Z,1008.11
2022-11-25T09:04:44.071Z,1008.07
2022-11-25T09:05:44.046Z,1008.08
2022-11-25T09:06:44.015Z,1008.09
2022-11-25T09:07:44.202Z,1008.12
2022-11-25T09:08:43.964Z,1008.14
2022-11-25T09:09:43.967Z,1008.17
2022-11-25T09:10:43.912Z,1008.19
2022-11-25T09:11:43.986Z,1008.29
2022-11-25T09:12:43.859Z,1008.36
2022-11-25T09:13:43.946Z,1008.37
2022-11-25T09:14:43.805Z,1008.35
2022-11-25T09:15:43.822Z,1008.42
2022-11-25T09:16:43.850Z,1008.41
2022-11-25T09:17:43.744Z,1008.41
2022-11-25T09:18:43.710Z,1008.43
2022-11-25T09:19:43.684Z,1008.42
2022-11-25T09:20:43.657Z,1008.41
2022-11-25T09:21:43.634Z,1008.45
2022-11-25T09:22:43.604Z,1008.44
2022-11-25T09:23:43.586Z,1008.42
2022-11-25T09:24:43.561Z,1008.44
2022-11-25T09:25:43.556Z,1008.42
2022-11-25T09:26:43.510Z,1008.41
2022-11-25T09:27:43.484Z,1008.46
2022-11-25T09:28:43.460Z,1008.43
2022-11-25T09:29:43.432Z,1008.47
2022-11-25T09:30:43.399Z,1008.47
2022-11-25T09:31:43.577Z,1008.51
2022-11-25T09:32:43.354Z,1008.54
2022-11-25T09:33:43.329Z,1008.55
2022-11-25T09:34:43.306Z,1008.52
2022-11-25T09:35:43.281Z,1008.59
2022-11-25T09:36:43.252Z,1008.56
2022-11-25T09:37:43.236Z,1008.60
2022-11-25T09:38:43.504Z,1008.59
2022-11-25T09:39:43.180Z,1008.54
2022-11-25T09:40:43.152Z,1008.56
2022-11-25T09:41:43.146Z,1008.55
2022-11-25T09:42:43.101Z,1008.56
2022-11-25T09:43:43.079Z,1008.55
2022-11-25T09:44:43.048Z,1008.56
2022-11-25T09:45:43.026Z,1008.56
2022-11-25T09:46:43.155Z,1008.51
2022-11-25T09:47:47.614Z,1008.53
2022-11-25T09:48:42.959Z,1008.59
2022-11-25T09:49:42.930Z,1008.57
2022-11-25T09:50:42.898Z,1008.62
2022-11-25T09:51:42.879Z,1008.56
2022-11-25T09:52:42.856Z,1008.56
2022-11-25T09:53:42.821Z,1008.55
2022-11-25T09:54:42.795Z,1008.55
2022-11-25T09:55:42.783Z,1008.56
2022-11-25T09:56:42.748Z,1008.56
2022-11-25T09:57:42.743Z,1008.57
2022-11-25T09:58:42.686Z,1008.59
2022-11-25T09:59:42.673Z,1008.59
2022-11-25T10:00:42.636Z,1008.65
2022-11-25T10:01:42.663Z,1008.64
2022-11-25T10:02:42.761Z,1008.65
2022-11-25T10:03:42.693Z,1008.67
2022-11-25T10:04:42.539Z,1008.66
2022-11-25T10:05:42.519Z,1008.64
2022-11-25T10:06:42.541Z,1008.69
2022-11-25T10:07:42.468Z,1008.67
2022-11-25T10:08:42.446Z,1008.69
2022-11-25T10:09:42.417Z,1008.73
2022-11-25T10:10:42.382Z,1008.75
2022-11-25T10:11:42.371Z,1008.75
2022-11-25T10:12:42.340Z,1008.77
2022-11-25T10:13:42.340Z,1008.78
2022-11-25T10:14:42.283Z,1008.82
2022-11-25T10:15:42.323Z,1008.87
2022-11-25T10:16:45.936Z,1008.87
2022-11-25T10:17:42.211Z,1008.87
2022-11-25T10:18:42.191Z,1008.89
2022-11-25T10:19:42.163Z,1008.91
2022-11-25T10:20:42.140Z,1008.91
2022-11-25T10:21:42.108Z,1008.90
2022-11-25T10:22:42.088Z,1008.93
2022-11-25T10:23:42.062Z,1008.90
2022-11-25T10:24:42.457Z,1008.92
2022-11-25T10:25:42.015Z,1008.95
2022-11-25T10:26:41.987Z,1009.01
2022-11-25T10:27:41.959Z,1008.98
2022-11-25T10:28:41.940Z,1009.02
2022-11-25T10:29:41.927Z,1009.00
2022-11-25T10:30:41.876Z,1009.03
2022-11-25T10:31:41.903Z,1009.01
2022-11-25T10:32:41.829Z,1009.06
2022-11-25T10:33:41.827Z,1009.00
2022-11-25T10:34:41.782Z,1009.03
2022-11-25T10:35:41.751Z,1009.01
2022-11-25T10:36:41.729Z,1009.03
2022-11-25T10:37:41.712Z,1009.05
2022-11-25T10:38:41.685Z,1009.03
2022-11-25T10:39:41.661Z,1009.12
2022-11-25T10:40:41.625Z,1009.07
2022-11-25T10:41:41.609Z,1009.09
2022-11-25T10:42:41.579Z,1009.15
2022-11-25T10:43:41.563Z,1009.13
2022-11-25T10:44:41.528Z,1009.12
2022-11-25T10:45:41.531Z,1009.16
2022-11-25T10:47:11.785Z,1009.15
2022-11-25T10:47:41.523Z,1009.15
2022-11-25T10:48:44.369Z,1009.13
2022-11-25T10:49:41.405Z,1009.13
2022-11-25T10:50:41.376Z,1009.12
2022-11-25T10:51:41.354Z,1009.10
2022-11-25T10:52:41.330Z,1009.11
2022-11-25T10:53:41.310Z,1009.13
2022-11-25T10:54:41.580Z,1009.14
2022-11-25T10:55:41.245Z,1009.16
2022-11-25T10:56:41.231Z,1009.16
2022-11-25T10:57:41.205Z,1009.18
2022-11-25T10:58:41.184Z,1009.16
2022-11-25T10:59:41.149Z,1009.12
2022-11-25T11:00:41.120Z,1009.16
2022-11-25T11:01:41.192Z,1009.17
2022-11-25T11:02:41.279Z,1009.17
2022-11-25T11:03:41.056Z,1009.20
2022-11-25T11:04:41.026Z,1009.26
2022-11-25T11:05:46.347Z,1009.22
2022-11-25T11:06:40.967Z,1009.20
2022-11-25T11:07:41.037Z,1009.18
2022-11-25T11:08:40.916Z,1009.25
2022-11-25T11:09:40.921Z,1009.25
2022-11-25T11:10:40.871Z,1009.23
2022-11-25T11:11:40.844Z,1009.27
2022-11-25T11:12:40.818Z,1009.26
2022-11-25T11:13:40.799Z,1009.30
2022-11-25T11:14:40.764Z,1009.32
2022-11-25T11:15:40.976Z,1009.35
2022-11-25T11:16:40.816Z,1009.34
2022-11-25T11:17:40.725Z,1009.36
2022-11-25T11:18:40.676Z,1009.32
2022-11-25T11:19:40.651Z,1009.32
2022-11-25T11:20:40.613Z,1009.34
2022-11-25T11:21:40.608Z,1009.35
2022-11-25T11:22:40.575Z,1009.39
2022-11-25T11:23:40.549Z,1009.41
2022-11-25T11:24:40.650Z,1009.42
2022-11-25T11:25:40.496Z,1009.39
2022-11-25T11:26:40.466Z,1009.36
2022-11-25T11:27:40.458Z,1009.38
2022-11-25T11:28:40.415Z,1009.38
2022-11-25T11:29:40.394Z,1009.42
2022-11-25T11:30:40.366Z,1009.41
2022-11-25T11:31:40.410Z,1009.42
2022-11-25T11:32:40.319Z,1009.44
2022-11-25T11:33:40.313Z,1009.40
2022-11-25T11:34:40.268Z,1009.42
2022-11-25T11:35:42.012Z,1009.48
2022-11-25T11:36:40.226Z,1009.46
2022-11-25T11:37:40.203Z,1009.49
2022-11-25T11:38:40.176Z,1009.52
2022-11-25T11:39:40.149Z,1009.51
2022-11-25T11:40:40.114Z,1009.53
2022-11-25T11:41:40.095Z,1009.52
2022-11-25T11:42:40.068Z,1009.51
2022-11-25T11:43:40.046Z,1009.55
2022-11-25T11:44:40.018Z,1009.57
2022-11-25T11:45:40.001Z,1009.55
2022-11-25T11:46:40.048Z,1009.58
2022-11-25T11:47:39.946Z,1009.58
2022-11-25T11:48:39.921Z,1009.54
2022-11-25T11:49:39.918Z,1009.57
2022-11-25T11:50:39.868Z,1009.61
2022-11-25T11:51:39.842Z,1009.63
2022-11-25T11:52:39.819Z,1009.63
2022-11-25T11:53:39.804Z,1009.64
2022-11-25T11:54:39.851Z,1009.71
2022-11-25T11:55:39.751Z,1009.62
2022-11-25T11:56:39.720Z,1009.68
2022-11-25T11:57:39.694Z,1009.65
2022-11-25T11:58:39.665Z,1009.64
2022-11-25T11:59:39.650Z,1009.65
2022-11-25T12:00:39.617Z,1009.65
2022-11-25T12:01:39.637Z,1009.64
2022-11-25T12:02:39.739Z,1009.64
2022-11-25T12:03:39.635Z,1009.63
2022-11-25T12:04:39.842Z,1009.67
2022-11-25T12:05:39.520Z,1009.70
2022-11-25T12:06:39.461Z,1009.68
2022-11-25T12:07:39.496Z,1009.70